sensor_id;sensor_type;location;lat;lon;timestamp;P1;durP1;ratioP1;P2;durP2;ratioP2
53751;SDS011;41095;53.090;6.692;2023-06-19T00:02:02;9.52;;;8.63;;
53751;SDS011;41095;53.090;6.692;2023-06-19T00:04:28;10.60;;;8.85;;
53751;SDS011;41095;53.090;6.692;2023-06-19T00:06:54;8.02;;;7.32;;
53751;SDS011;41095;53.090;6.692;2023-06-19T00:09:20;9.35;;;8.43;;
53751;SDS011;41095;53.090;6.692;2023-06-19T00:11:46;9.05;;;8.25;;
53751;SDS011;41095;53.090;6.692;2023-06-19T00:14:11;8.48;;;7.75;;
53751;SDS011;41095;53.090;6.692;2023-06-19T00:16:37;9.57;;;8.65;;
53751;SDS011;41095;53.090;6.692;2023-06-19T00:19:03;9.48;;;7.55;;
53751;SDS011;41095;53.090;6.692;2023-06-19T00:21:29;9.02;;;8.07;;
53751;SDS011;41095;53.090;6.692;2023-06-19T00:23:55;9.30;;;8.40;;
53751;SDS011;41095;53.090;6.692;2023-06-19T00:26:21;8.10;;;7.40;;
53751;SDS011;41095;53.090;6.692;2023-06-19T00:28:50;9.95;;;7.70;;
53751;SDS011;41095;53.090;6.692;2023-06-19T00:31:16;8.23;;;7.47;;
53751;SDS011;41095;53.090;6.692;2023-06-19T00:33:44;9.93;;;7.95;;
53751;SDS011;41095;53.090;6.692;2023-06-19T00:36:11;7.63;;;6.93;;
53751;SDS011;41095;53.090;6.692;2023-06-19T00:38:38;7.80;;;7.20;;
53751;SDS011;41095;53.090;6.692;2023-06-19T00:41:04;8.63;;;7.82;;
53751;SDS011;41095;53.090;6.692;2023-06-19T00:43:30;9.73;;;8.40;;
53751;SDS011;41095;53.090;6.692;2023-06-19T00:46:00;12.82;;;8.65;;
53751;SDS011;41095;53.090;6.692;2023-06-19T00:48:27;9.98;;;7.45;;
53751;SDS011;41095;53.090;6.692;2023-06-19T00:50:55;8.90;;;7.50;;
53751;SDS011;41095;53.090;6.692;2023-06-19T00:53:21;7.63;;;6.90;;
53751;SDS011;41095;53.090;6.692;2023-06-19T00:55:48;8.02;;;7.15;;
53751;SDS011;41095;53.090;6.692;2023-06-19T00:58:14;9.48;;;8.52;;
53751;SDS011;41095;53.090;6.692;2023-06-19T01:00:40;8.57;;;7.78;;
53751;SDS011;41095;53.090;6.692;2023-06-19T01:03:06;7.85;;;6.88;;
53751;SDS011;41095;53.090;6.692;2023-06-19T01:05:32;7.65;;;6.97;;
53751;SDS011;41095;53.090;6.692;2023-06-19T01:08:08;8.18;;;7.38;;
53751;SDS011;41095;53.090;6.692;2023-06-19T01:10:43;8.07;;;7.28;;
53751;SDS011;41095;53.090;6.692;2023-06-19T01:13:27;8.60;;;7.72;;
53751;SDS011;41095;53.090;6.692;2023-06-19T01:16:02;7.68;;;6.93;;
53751;SDS011;41095;53.090;6.692;2023-06-19T01:18:30;7.60;;;6.90;;
53751;SDS011;41095;53.090;6.692;2023-06-19T01:20:57;8.45;;;7.65;;
53751;SDS011;41095;53.090;6.692;2023-06-19T01:23:33;7.68;;;6.97;;
53751;SDS011;41095;53.090;6.692;2023-06-19T01:25:59;8.70;;;7.82;;
53751;SDS011;41095;53.090;6.692;2023-06-19T01:28:24;8.48;;;7.68;;
53751;SDS011;41095;53.090;6.692;2023-06-19T01:30:51;8.05;;;7.25;;
53751;SDS011;41095;53.090;6.692;2023-06-19T01:33:20;10.10;;;8.13;;
53751;SDS011;41095;53.090;6.692;2023-06-19T01:35:52;8.43;;;7.72;;
53751;SDS011;41095;53.090;6.692;2023-06-19T01:38:20;10.82;;;7.93;;
53751;SDS011;41095;53.090;6.692;2023-06-19T01:40:50;7.82;;;7.03;;
53751;SDS011;41095;53.090;6.692;2023-06-19T01:43:20;9.43;;;8.15;;
53751;SDS011;41095;53.090;6.692;2023-06-19T01:45:47;9.65;;;7.68;;
53751;SDS011;41095;53.090;6.692;2023-06-19T01:48:14;8.98;;;8.07;;
53751;SDS011;41095;53.090;6.692;2023-06-19T01:50:40;8.95;;;7.90;;
53751;SDS011;41095;53.090;6.692;2023-06-19T01:53:10;8.63;;;7.72;;
53751;SDS011;41095;53.090;6.692;2023-06-19T01:55:36;11.73;;;7.85;;
53751;SDS011;41095;53.090;6.692;2023-06-19T01:58:02;9.85;;;7.78;;
53751;SDS011;41095;53.090;6.692;2023-06-19T02:00:28;8.75;;;7.85;;
53751;SDS011;41095;53.090;6.692;2023-06-19T02:02:55;9.80;;;8.27;;
53751;SDS011;41095;53.090;6.692;2023-06-19T02:05:21;8.70;;;7.90;;
53751;SDS011;41095;53.090;6.692;2023-06-19T02:07:47;9.57;;;7.25;;
53751;SDS011;41095;53.090;6.692;2023-06-19T02:10:12;7.95;;;7.20;;
53751;SDS011;41095;53.090;6.692;2023-06-19T02:12:38;11.02;;;7.97;;
53751;SDS011;41095;53.090;6.692;2023-06-19T02:15:04;8.35;;;7.43;;
53751;SDS011;41095;53.090;6.692;2023-06-19T02:17:30;8.25;;;7.45;;
53751;SDS011;41095;53.090;6.692;2023-06-19T02:19:56;8.02;;;7.22;;
53751;SDS011;41095;53.090;6.692;2023-06-19T02:22:21;8.30;;;7.50;;
53751;SDS011;41095;53.090;6.692;2023-06-19T02:24:47;7.90;;;7.10;;
53751;SDS011;41095;53.090;6.692;2023-06-19T02:27:13;8.75;;;7.85;;
53751;SDS011;41095;53.090;6.692;2023-06-19T02:29:39;8.40;;;7.60;;
53751;SDS011;41095;53.090;6.692;2023-06-19T02:32:04;8.98;;;7.18;;
53751;SDS011;41095;53.090;6.692;2023-06-19T02:34:30;7.97;;;7.18;;
53751;SDS011;41095;53.090;6.692;2023-06-19T02:36:56;7.10;;;6.47;;
53751;SDS011;41095;53.090;6.692;2023-06-19T02:39:22;8.25;;;7.43;;
53751;SDS011;41095;53.090;6.692;2023-06-19T02:41:49;9.85;;;8.07;;
53751;SDS011;41095;53.090;6.692;2023-06-19T02:44:14;8.70;;;7.80;;
53751;SDS011;41095;53.090;6.692;2023-06-19T02:46:40;9.02;;;8.15;;
53751;SDS011;41095;53.090;6.692;2023-06-19T02:49:06;9.70;;;7.07;;
53751;SDS011;41095;53.090;6.692;2023-06-19T02:51:31;9.82;;;8.25;;
53751;SDS011;41095;53.090;6.692;2023-06-19T02:53:57;8.32;;;6.85;;
53751;SDS011;41095;53.090;6.692;2023-06-19T02:56:23;8.48;;;6.82;;
53751;SDS011;41095;53.090;6.692;2023-06-19T02:58:50;9.02;;;7.43;;
53751;SDS011;41095;53.090;6.692;2023-06-19T03:01:15;10.02;;;7.28;;
53751;SDS011;41095;53.090;6.692;2023-06-19T03:03:41;8.32;;;7.53;;
53751;SDS011;41095;53.090;6.692;2023-06-19T03:06:07;7.93;;;7.13;;
53751;SDS011;41095;53.090;6.692;2023-06-19T03:08:33;7.97;;;7.22;;
53751;SDS011;41095;53.090;6.692;2023-06-19T03:11:00;8.02;;;7.22;;
53751;SDS011;41095;53.090;6.692;2023-06-19T03:13:26;8.35;;;7.43;;
53751;SDS011;41095;53.090;6.692;2023-06-19T03:15:51;8.35;;;7.05;;
53751;SDS011;41095;53.090;6.692;2023-06-19T03:18:17;9.75;;;6.47;;
53751;SDS011;41095;53.090;6.692;2023-06-19T03:20:43;7.00;;;6.30;;
53751;SDS011;41095;53.090;6.692;2023-06-19T03:23:08;8.00;;;7.20;;
53751;SDS011;41095;53.090;6.692;2023-06-19T03:25:34;8.15;;;6.85;;
53751;SDS011;41095;53.090;6.692;2023-06-19T03:28:03;9.85;;;7.70;;
53751;SDS011;41095;53.090;6.692;2023-06-19T03:30:29;9.00;;;8.10;;
53751;SDS011;41095;53.090;6.692;2023-06-19T03:32:55;7.78;;;6.85;;
53751;SDS011;41095;53.090;6.692;2023-06-19T03:35:21;9.30;;;8.40;;
53751;SDS011;41095;53.090;6.692;2023-06-19T03:37:47;7.65;;;6.93;;
53751;SDS011;41095;53.090;6.692;2023-06-19T03:40:12;10.77;;;7.70;;
53751;SDS011;41095;53.090;6.692;2023-06-19T03:42:39;6.65;;;6.00;;
53751;SDS011;41095;53.090;6.692;2023-06-19T03:45:05;8.27;;;7.47;;
53751;SDS011;41095;53.090;6.692;2023-06-19T03:47:31;10.85;;;7.18;;
53751;SDS011;41095;53.090;6.692;2023-06-19T03:49:57;8.13;;;7.13;;
53751;SDS011;41095;53.090;6.692;2023-06-19T03:52:23;7.25;;;6.47;;
53751;SDS011;41095;53.090;6.692;2023-06-19T03:54:48;7.03;;;6.32;;
53751;SDS011;41095;53.090;6.692;2023-06-19T03:57:14;7.32;;;6.68;;
53751;SDS011;41095;53.090;6.692;2023-06-19T03:59:40;8.10;;;6.78;;
53751;SDS011;41095;53.090;6.692;2023-06-19T04:02:06;7.43;;;6.22;;
53751;SDS011;41095;53.090;6.692;2023-06-19T04:04:32;7.65;;;6.57;;
53751;SDS011;41095;53.090;6.692;2023-06-19T04:06:59;7.97;;;6.35;;
53751;SDS011;41095;53.090;6.692;2023-06-19T04:09:27;6.78;;;6.18;;
53751;SDS011;41095;53.090;6.692;2023-06-19T04:11:55;6.93;;;5.68;;
53751;SDS011;41095;53.090;6.692;2023-06-19T04:14:21;10.02;;;7.45;;
53751;SDS011;41095;53.090;6.692;2023-06-19T04:16:48;6.22;;;5.63;;
53751;SDS011;41095;53.090;6.692;2023-06-19T04:19:14;5.63;;;4.97;;
53751;SDS011;41095;53.090;6.692;2023-06-19T04:21:39;6.38;;;4.85;;
53751;SDS011;41095;53.090;6.692;2023-06-19T04:24:05;5.68;;;5.13;;
53751;SDS011;41095;53.090;6.692;2023-06-19T04:26:34;4.97;;;4.57;;
53751;SDS011;41095;53.090;6.692;2023-06-19T04:29:01;7.30;;;4.55;;
53751;SDS011;41095;53.090;6.692;2023-06-19T04:31:26;5.03;;;4.53;;
53751;SDS011;41095;53.090;6.692;2023-06-19T04:33:53;4.20;;;3.80;;
53751;SDS011;41095;53.090;6.692;2023-06-19T04:36:21;6.00;;;4.65;;
53751;SDS011;41095;53.090;6.692;2023-06-19T04:38:48;5.10;;;4.60;;
53751;SDS011;41095;53.090;6.692;2023-06-19T04:41:17;4.93;;;4.18;;
53751;SDS011;41095;53.090;6.692;2023-06-19T04:43:43;4.32;;;3.72;;
53751;SDS011;41095;53.090;6.692;2023-06-19T04:46:08;4.70;;;3.65;;
53751;SDS011;41095;53.090;6.692;2023-06-19T04:48:34;4.93;;;4.43;;
53751;SDS011;41095;53.090;6.692;2023-06-19T04:51:05;4.70;;;4.20;;
53751;SDS011;41095;53.090;6.692;2023-06-19T04:53:31;7.78;;;4.00;;
53751;SDS011;41095;53.090;6.692;2023-06-19T04:55:56;5.75;;;3.95;;
53751;SDS011;41095;53.090;6.692;2023-06-19T04:58:22;5.75;;;5.25;;
53751;SDS011;41095;53.090;6.692;2023-06-19T05:00:48;4.47;;;4.05;;
53751;SDS011;41095;53.090;6.692;2023-06-19T05:03:16;5.53;;;4.13;;
53751;SDS011;41095;53.090;6.692;2023-06-19T05:05:43;4.40;;;3.90;;
53751;SDS011;41095;53.090;6.692;2023-06-19T05:08:09;4.45;;;3.40;;
53751;SDS011;41095;53.090;6.692;2023-06-19T05:10:35;6.00;;;4.50;;
53751;SDS011;41095;53.090;6.692;2023-06-19T05:13:01;4.22;;;3.70;;
53751;SDS011;41095;53.090;6.692;2023-06-19T05:15:27;4.40;;;4.00;;
53751;SDS011;41095;53.090;6.692;2023-06-19T05:17:53;4.72;;;4.05;;
53751;SDS011;41095;53.090;6.692;2023-06-19T05:20:19;5.75;;;4.20;;
53751;SDS011;41095;53.090;6.692;2023-06-19T05:22:45;5.68;;;4.40;;
53751;SDS011;41095;53.090;6.692;2023-06-19T05:25:11;4.28;;;3.83;;
53751;SDS011;41095;53.090;6.692;2023-06-19T05:27:36;5.35;;;3.95;;
53751;SDS011;41095;53.090;6.692;2023-06-19T05:30:02;5.32;;;4.00;;
53751;SDS011;41095;53.090;6.692;2023-06-19T05:32:29;5.10;;;4.05;;
53751;SDS011;41095;53.090;6.692;2023-06-19T05:34:55;4.68;;;4.28;;
53751;SDS011;41095;53.090;6.692;2023-06-19T05:37:21;6.32;;;4.38;;
53751;SDS011;41095;53.090;6.692;2023-06-19T05:39:47;4.93;;;3.53;;
53751;SDS011;41095;53.090;6.692;2023-06-19T05:42:14;6.55;;;4.45;;
53751;SDS011;41095;53.090;6.692;2023-06-19T05:44:39;5.25;;;3.95;;
53751;SDS011;41095;53.090;6.692;2023-06-19T05:47:08;4.60;;;4.03;;
53751;SDS011;41095;53.090;6.692;2023-06-19T05:49:34;5.10;;;4.20;;
53751;SDS011;41095;53.090;6.692;2023-06-19T05:51:59;4.68;;;4.22;;
53751;SDS011;41095;53.090;6.692;2023-06-19T05:54:26;5.18;;;4.50;;
53751;SDS011;41095;53.090;6.692;2023-06-19T05:56:52;4.40;;;4.00;;
53751;SDS011;41095;53.090;6.692;2023-06-19T05:59:18;4.22;;;3.83;;
53751;SDS011;41095;53.090;6.692;2023-06-19T06:01:44;5.93;;;4.40;;
53751;SDS011;41095;53.090;6.692;2023-06-19T06:04:09;6.10;;;4.82;;
53751;SDS011;41095;53.090;6.692;2023-06-19T06:06:35;6.70;;;4.60;;
53751;SDS011;41095;53.090;6.692;2023-06-19T06:09:01;6.10;;;5.35;;
53751;SDS011;41095;53.090;6.692;2023-06-19T06:11:26;6.35;;;4.68;;
53751;SDS011;41095;53.090;6.692;2023-06-19T06:13:52;6.95;;;5.43;;
53751;SDS011;41095;53.090;6.692;2023-06-19T06:16:17;7.15;;;5.95;;
53751;SDS011;41095;53.090;6.692;2023-06-19T06:18:44;9.02;;;6.05;;
53751;SDS011;41095;53.090;6.692;2023-06-19T06:21:10;5.97;;;5.38;;
53751;SDS011;41095;53.090;6.692;2023-06-19T06:23:38;8.50;;;6.35;;
53751;SDS011;41095;53.090;6.692;2023-06-19T06:26:05;5.65;;;5.03;;
53751;SDS011;41095;53.090;6.692;2023-06-19T06:28:31;7.38;;;5.63;;
53751;SDS011;41095;53.090;6.692;2023-06-19T06:30:56;6.72;;;5.28;;
53751;SDS011;41095;53.090;6.692;2023-06-19T06:33:22;7.55;;;4.90;;
53751;SDS011;41095;53.090;6.692;2023-06-19T06:35:49;5.03;;;4.45;;
53751;SDS011;41095;53.090;6.692;2023-06-19T06:38:16;5.40;;;4.22;;
53751;SDS011;41095;53.090;6.692;2023-06-19T06:40:42;4.82;;;4.43;;
53751;SDS011;41095;53.090;6.692;2023-06-19T06:43:08;10.57;;;4.28;;
53751;SDS011;41095;53.090;6.692;2023-06-19T06:45:34;7.18;;;4.60;;
53751;SDS011;41095;53.090;6.692;2023-06-19T06:48:02;4.95;;;3.85;;
53751;SDS011;41095;53.090;6.692;2023-06-19T06:50:29;5.07;;;3.72;;
53751;SDS011;41095;53.090;6.692;2023-06-19T06:52:57;4.47;;;4.07;;
53751;SDS011;41095;53.090;6.692;2023-06-19T06:55:23;4.00;;;3.65;;
53751;SDS011;41095;53.090;6.692;2023-06-19T06:57:49;5.25;;;4.75;;
53751;SDS011;41095;53.090;6.692;2023-06-19T07:00:15;3.90;;;3.60;;
53751;SDS011;41095;53.090;6.692;2023-06-19T07:02:41;4.55;;;4.15;;
53751;SDS011;41095;53.090;6.692;2023-06-19T07:05:06;5.43;;;4.93;;
53751;SDS011;41095;53.090;6.692;2023-06-19T07:07:33;5.57;;;4.97;;
53751;SDS011;41095;53.090;6.692;2023-06-19T07:09:59;6.50;;;5.80;;
53751;SDS011;41095;53.090;6.692;2023-06-19T07:12:25;7.45;;;6.47;;
53751;SDS011;41095;53.090;6.692;2023-06-19T07:14:54;6.68;;;5.97;;
53751;SDS011;41095;53.090;6.692;2023-06-19T07:17:20;8.18;;;6.47;;
53751;SDS011;41095;53.090;6.692;2023-06-19T07:19:46;7.50;;;6.78;;
53751;SDS011;41095;53.090;6.692;2023-06-19T07:22:11;11.40;;;8.38;;
53751;SDS011;41095;53.090;6.692;2023-06-19T07:24:39;9.57;;;8.52;;
53751;SDS011;41095;53.090;6.692;2023-06-19T07:27:08;10.50;;;8.98;;
53751;SDS011;41095;53.090;6.692;2023-06-19T07:29:35;12.48;;;10.68;;
53751;SDS011;41095;53.090;6.692;2023-06-19T07:32:00;13.25;;;11.43;;
53751;SDS011;41095;53.090;6.692;2023-06-19T07:34:28;12.77;;;11.32;;
53751;SDS011;41095;53.090;6.692;2023-06-19T07:36:53;13.90;;;10.93;;
53751;SDS011;41095;53.090;6.692;2023-06-19T07:39:19;14.35;;;12.13;;
53751;SDS011;41095;53.090;6.692;2023-06-19T07:41:45;13.70;;;10.32;;
53751;SDS011;41095;53.090;6.692;2023-06-19T07:44:11;12.32;;;10.90;;
53751;SDS011;41095;53.090;6.692;2023-06-19T07:46:36;11.82;;;9.73;;
53751;SDS011;41095;53.090;6.692;2023-06-19T07:49:02;14.02;;;9.80;;
53751;SDS011;41095;53.090;6.692;2023-06-19T07:51:28;10.63;;;8.10;;
53751;SDS011;41095;53.090;6.692;2023-06-19T07:53:54;10.50;;;8.45;;
53751;SDS011;41095;53.090;6.692;2023-06-19T07:56:19;12.68;;;9.40;;
53751;SDS011;41095;53.090;6.692;2023-06-19T07:58:46;9.68;;;8.30;;
53751;SDS011;41095;53.090;6.692;2023-06-19T08:01:12;9.45;;;8.05;;
53751;SDS011;41095;53.090;6.692;2023-06-19T08:03:37;8.68;;;7.35;;
53751;SDS011;41095;53.090;6.692;2023-06-19T08:06:03;10.40;;;9.30;;
53751;SDS011;41095;53.090;6.692;2023-06-19T08:08:29;10.23;;;7.22;;
53751;SDS011;41095;53.090;6.692;2023-06-19T08:10:55;9.55;;;7.80;;
53751;SDS011;41095;53.090;6.692;2023-06-19T08:13:20;10.90;;;6.75;;
53751;SDS011;41095;53.090;6.692;2023-06-19T08:15:46;8.15;;;6.20;;
53751;SDS011;41095;53.090;6.692;2023-06-19T08:18:12;6.97;;;6.18;;
53751;SDS011;41095;53.090;6.692;2023-06-19T08:20:37;6.72;;;5.55;;
53751;SDS011;41095;53.090;6.692;2023-06-19T08:23:03;6.70;;;5.47;;
53751;SDS011;41095;53.090;6.692;2023-06-19T08:25:29;7.97;;;5.93;;
53751;SDS011;41095;53.090;6.692;2023-06-19T08:27:54;7.47;;;4.93;;
53751;SDS011;41095;53.090;6.692;2023-06-19T08:30:20;5.97;;;4.70;;
53751;SDS011;41095;53.090;6.692;2023-06-19T08:32:46;7.55;;;5.00;;
53751;SDS011;41095;53.090;6.692;2023-06-19T08:35:11;5.38;;;4.55;;
53751;SDS011;41095;53.090;6.692;2023-06-19T08:37:37;5.50;;;4.45;;
53751;SDS011;41095;53.090;6.692;2023-06-19T08:40:03;5.45;;;4.28;;
53751;SDS011;41095;53.090;6.692;2023-06-19T08:42:33;5.32;;;3.92;;
53751;SDS011;41095;53.090;6.692;2023-06-19T08:44:59;11.85;;;4.95;;
53751;SDS011;41095;53.090;6.692;2023-06-19T08:47:29;7.78;;;4.70;;
53751;SDS011;41095;53.090;6.692;2023-06-19T08:49:56;5.75;;;4.40;;
53751;SDS011;41095;53.090;6.692;2023-06-19T08:52:23;5.53;;;4.43;;
53751;SDS011;41095;53.090;6.692;2023-06-19T08:54:49;7.47;;;4.63;;
53751;SDS011;41095;53.090;6.692;2023-06-19T08:57:14;5.93;;;4.82;;
53751;SDS011;41095;53.090;6.692;2023-06-19T08:59:41;4.97;;;4.45;;
53751;SDS011;41095;53.090;6.692;2023-06-19T09:02:14;8.00;;;4.63;;
53751;SDS011;41095;53.090;6.692;2023-06-19T09:04:40;5.40;;;4.90;;
53751;SDS011;41095;53.090;6.692;2023-06-19T09:07:06;5.45;;;4.75;;
53751;SDS011;41095;53.090;6.692;2023-06-19T09:09:33;6.57;;;5.22;;
53751;SDS011;41095;53.090;6.692;2023-06-19T09:12:08;4.80;;;4.40;;
53751;SDS011;41095;53.090;6.692;2023-06-19T09:14:38;6.20;;;4.45;;
53751;SDS011;41095;53.090;6.692;2023-06-19T09:17:06;5.63;;;4.15;;
53751;SDS011;41095;53.090;6.692;2023-06-19T09:19:33;4.80;;;4.30;;
53751;SDS011;41095;53.090;6.692;2023-06-19T09:22:03;5.82;;;4.60;;
53751;SDS011;41095;53.090;6.692;2023-06-19T09:24:33;7.60;;;4.32;;
53751;SDS011;41095;53.090;6.692;2023-06-19T09:27:06;6.00;;;4.40;;
53751;SDS011;41095;53.090;6.692;2023-06-19T09:32:17;6.10;;;5.18;;
53751;SDS011;41095;53.090;6.692;2023-06-19T09:34:48;7.30;;;5.30;;
53751;SDS011;41095;53.090;6.692;2023-06-19T09:37:18;7.38;;;5.38;;
53751;SDS011;41095;53.090;6.692;2023-06-19T09:42:19;7.80;;;5.28;;
53751;SDS011;41095;53.090;6.692;2023-06-19T09:45:05;6.40;;;4.75;;
53751;SDS011;41095;53.090;6.692;2023-06-19T09:50:03;6.13;;;5.10;;
53751;SDS011;41095;53.090;6.692;2023-06-19T09:52:31;5.80;;;4.65;;
53751;SDS011;41095;53.090;6.692;2023-06-19T09:54:57;6.22;;;5.63;;
53751;SDS011;41095;53.090;6.692;2023-06-19T09:57:27;9.50;;;5.10;;
53751;SDS011;41095;53.090;6.692;2023-06-19T09:59:54;6.63;;;4.65;;
53751;SDS011;41095;53.090;6.692;2023-06-19T10:02:21;8.38;;;6.07;;
53751;SDS011;41095;53.090;6.692;2023-06-19T10:04:57;6.95;;;6.25;;
53751;SDS011;41095;53.090;6.692;2023-06-19T10:07:23;7.55;;;5.80;;
53751;SDS011;41095;53.090;6.692;2023-06-19T10:10:05;8.63;;;6.20;;
53751;SDS011;41095;53.090;6.692;2023-06-19T10:12:42;6.35;;;5.30;;
53751;SDS011;41095;53.090;6.692;2023-06-19T10:17:46;8.15;;;7.25;;
53751;SDS011;41095;53.090;6.692;2023-06-19T10:23:35;6.68;;;5.43;;
53751;SDS011;41095;53.090;6.692;2023-06-19T10:25:43;7.63;;;5.32;;
53751;SDS011;41095;53.090;6.692;2023-06-19T10:28:16;4.88;;;4.45;;
53751;SDS011;41095;53.090;6.692;2023-06-19T10:33:30;6.72;;;5.95;;
53751;SDS011;41095;53.090;6.692;2023-06-19T10:36:00;9.10;;;6.38;;
53751;SDS011;41095;53.090;6.692;2023-06-19T10:38:27;9.98;;;6.15;;
53751;SDS011;41095;53.090;6.692;2023-06-19T10:40:53;7.57;;;5.75;;
53751;SDS011;41095;53.090;6.692;2023-06-19T10:43:20;9.02;;;6.70;;
53751;SDS011;41095;53.090;6.692;2023-06-19T10:45:47;8.40;;;7.00;;
53751;SDS011;41095;53.090;6.692;2023-06-19T10:48:18;7.05;;;6.35;;
53751;SDS011;41095;53.090;6.692;2023-06-19T10:50:53;9.98;;;7.65;;
53751;SDS011;41095;53.090;6.692;2023-06-19T10:53:29;11.20;;;8.00;;
53751;SDS011;41095;53.090;6.692;2023-06-19T10:55:56;9.98;;;7.15;;
53751;SDS011;41095;53.090;6.692;2023-06-19T10:58:24;8.98;;;7.32;;
53751;SDS011;41095;53.090;6.692;2023-06-19T11:00:52;9.88;;;7.05;;
53751;SDS011;41095;53.090;6.692;2023-06-19T11:03:18;7.97;;;7.15;;
53751;SDS011;41095;53.090;6.692;2023-06-19T11:05:45;8.70;;;7.30;;
53751;SDS011;41095;53.090;6.692;2023-06-19T11:08:16;9.77;;;8.10;;
53751;SDS011;41095;53.090;6.692;2023-06-19T11:10:46;9.57;;;6.88;;
53751;SDS011;41095;53.090;6.692;2023-06-19T11:13:16;7.60;;;6.88;;
53751;SDS011;41095;53.090;6.692;2023-06-19T11:15:43;8.95;;;7.47;;
53751;SDS011;41095;53.090;6.692;2023-06-19T11:18:09;8.18;;;6.93;;
53751;SDS011;41095;53.090;6.692;2023-06-19T11:23:10;9.52;;;7.07;;
53751;SDS011;41095;53.090;6.692;2023-06-19T11:25:36;8.23;;;7.43;;
53751;SDS011;41095;53.090;6.692;2023-06-19T11:28:04;8.18;;;6.78;;
53751;SDS011;41095;53.090;6.692;2023-06-19T11:30:35;8.65;;;7.40;;
53751;SDS011;41095;53.090;6.692;2023-06-19T11:33:01;7.43;;;6.47;;
53751;SDS011;41095;53.090;6.692;2023-06-19T11:35:32;9.15;;;6.90;;
53751;SDS011;41095;53.090;6.692;2023-06-19T11:38:02;9.35;;;7.13;;
53751;SDS011;41095;53.090;6.692;2023-06-19T11:40:28;8.30;;;6.45;;
53751;SDS011;41095;53.090;6.692;2023-06-19T11:43:03;10.13;;;7.75;;
53751;SDS011;41095;53.090;6.692;2023-06-19T11:45:28;9.50;;;7.22;;
53751;SDS011;41095;53.090;6.692;2023-06-19T11:47:54;7.63;;;6.93;;
53751;SDS011;41095;53.090;6.692;2023-06-19T11:50:25;7.72;;;6.30;;
53751;SDS011;41095;53.090;6.692;2023-06-19T11:55:18;7.20;;;6.28;;
53751;SDS011;41095;53.090;6.692;2023-06-19T11:57:44;9.77;;;7.15;;
53751;SDS011;41095;53.090;6.692;2023-06-19T12:00:13;6.95;;;6.22;;
53751;SDS011;41095;53.090;6.692;2023-06-19T12:02:40;10.55;;;7.30;;
53751;SDS011;41095;53.090;6.692;2023-06-19T12:05:06;9.05;;;8.07;;
53751;SDS011;41095;53.090;6.692;2023-06-19T12:07:32;11.48;;;7.35;;
53751;SDS011;41095;53.090;6.692;2023-06-19T12:09:58;9.50;;;7.63;;
53751;SDS011;41095;53.090;6.692;2023-06-19T12:12:24;9.88;;;8.00;;
53751;SDS011;41095;53.090;6.692;2023-06-19T12:14:51;8.75;;;6.63;;
53751;SDS011;41095;53.090;6.692;2023-06-19T12:17:17;10.25;;;7.60;;
53751;SDS011;41095;53.090;6.692;2023-06-19T12:19:42;9.77;;;7.47;;
53751;SDS011;41095;53.090;6.692;2023-06-19T12:22:08;7.40;;;6.70;;
53751;SDS011;41095;53.090;6.692;2023-06-19T12:24:34;9.75;;;8.10;;
53751;SDS011;41095;53.090;6.692;2023-06-19T12:26:59;10.90;;;8.75;;
53751;SDS011;41095;53.090;6.692;2023-06-19T12:29:25;8.57;;;7.75;;
53751;SDS011;41095;53.090;6.692;2023-06-19T12:31:51;10.35;;;8.00;;
53751;SDS011;41095;53.090;6.692;2023-06-19T12:34:17;13.02;;;8.93;;
53751;SDS011;41095;53.090;6.692;2023-06-19T12:36:43;11.32;;;9.25;;
53751;SDS011;41095;53.090;6.692;2023-06-19T12:39:09;14.15;;;8.75;;
53751;SDS011;41095;53.090;6.692;2023-06-19T12:41:41;12.93;;;9.75;;
53751;SDS011;41095;53.090;6.692;2023-06-19T12:44:06;14.13;;;8.48;;
53751;SDS011;41095;53.090;6.692;2023-06-19T12:46:32;8.57;;;7.13;;
53751;SDS011;41095;53.090;6.692;2023-06-19T12:48:58;7.53;;;6.80;;
53751;SDS011;41095;53.090;6.692;2023-06-19T12:51:23;7.75;;;6.85;;
53751;SDS011;41095;53.090;6.692;2023-06-19T12:53:49;10.40;;;7.57;;
53751;SDS011;41095;53.090;6.692;2023-06-19T12:56:15;10.25;;;8.13;;
53751;SDS011;41095;53.090;6.692;2023-06-19T12:58:40;8.45;;;6.15;;
53751;SDS011;41095;53.090;6.692;2023-06-19T13:01:06;10.50;;;8.50;;
53751;SDS011;41095;53.090;6.692;2023-06-19T13:03:32;8.23;;;6.88;;
53751;SDS011;41095;53.090;6.692;2023-06-19T13:05:57;7.43;;;6.70;;
53751;SDS011;41095;53.090;6.692;2023-06-19T13:08:23;7.57;;;6.28;;
53751;SDS011;41095;53.090;6.692;2023-06-19T13:10:49;7.28;;;6.55;;
53751;SDS011;41095;53.090;6.692;2023-06-19T13:13:14;8.95;;;6.75;;
53751;SDS011;41095;53.090;6.692;2023-06-19T13:15:40;7.15;;;6.45;;
53751;SDS011;41095;53.090;6.692;2023-06-19T13:18:06;7.25;;;6.63;;
53751;SDS011;41095;53.090;6.692;2023-06-19T13:20:31;7.65;;;6.03;;
53751;SDS011;41095;53.090;6.692;2023-06-19T13:22:57;8.13;;;6.40;;
53751;SDS011;41095;53.090;6.692;2023-06-19T13:25:23;9.30;;;6.25;;
53751;SDS011;41095;53.090;6.692;2023-06-19T13:27:49;8.02;;;7.22;;
53751;SDS011;41095;53.090;6.692;2023-06-19T13:30:14;7.20;;;6.50;;
53751;SDS011;41095;53.090;6.692;2023-06-19T13:32:41;9.50;;;7.00;;
53751;SDS011;41095;53.090;6.692;2023-06-19T13:35:07;13.02;;;6.95;;
53751;SDS011;41095;53.090;6.692;2023-06-19T13:37:33;9.95;;;7.07;;
53751;SDS011;41095;53.090;6.692;2023-06-19T13:40:00;8.45;;;6.75;;
53751;SDS011;41095;53.090;6.692;2023-06-19T13:42:29;7.90;;;6.18;;
53751;SDS011;41095;53.090;6.692;2023-06-19T13:44:55;6.60;;;5.80;;
53751;SDS011;41095;53.090;6.692;2023-06-19T13:47:20;8.52;;;6.63;;
53751;SDS011;41095;53.090;6.692;2023-06-19T13:49:46;7.32;;;6.45;;
53751;SDS011;41095;53.090;6.692;2023-06-19T13:52:12;8.95;;;7.13;;
53751;SDS011;41095;53.090;6.692;2023-06-19T13:54:37;9.45;;;6.72;;
53751;SDS011;41095;53.090;6.692;2023-06-19T13:57:03;6.85;;;6.03;;
53751;SDS011;41095;53.090;6.692;2023-06-19T13:59:29;6.78;;;5.60;;
53751;SDS011;41095;53.090;6.692;2023-06-19T14:01:55;8.63;;;6.63;;
53751;SDS011;41095;53.090;6.692;2023-06-19T14:04:21;8.80;;;6.57;;
53751;SDS011;41095;53.090;6.692;2023-06-19T14:06:47;11.13;;;7.45;;
53751;SDS011;41095;53.090;6.692;2023-06-19T14:09:13;8.60;;;6.10;;
53751;SDS011;41095;53.090;6.692;2023-06-19T14:11:38;7.15;;;6.00;;
53751;SDS011;41095;53.090;6.692;2023-06-19T14:14:04;7.45;;;5.72;;
53751;SDS011;41095;53.090;6.692;2023-06-19T14:16:30;6.32;;;4.88;;
53751;SDS011;41095;53.090;6.692;2023-06-19T14:18:55;6.63;;;5.72;;
53751;SDS011;41095;53.090;6.692;2023-06-19T14:21:21;5.93;;;5.05;;
53751;SDS011;41095;53.090;6.692;2023-06-19T14:23:48;5.32;;;4.82;;
53751;SDS011;41095;53.090;6.692;2023-06-19T14:26:14;5.32;;;4.82;;
53751;SDS011;41095;53.090;6.692;2023-06-19T14:28:40;6.18;;;4.25;;
53751;SDS011;41095;53.090;6.692;2023-06-19T14:31:06;6.28;;;4.63;;
53751;SDS011;41095;53.090;6.692;2023-06-19T14:33:32;6.00;;;4.68;;
53751;SDS011;41095;53.090;6.692;2023-06-19T14:35:59;4.88;;;4.32;;
53751;SDS011;41095;53.090;6.692;2023-06-19T14:38:26;5.57;;;5.00;;
53751;SDS011;41095;53.090;6.692;2023-06-19T14:40:56;5.63;;;5.00;;
53751;SDS011;41095;53.090;6.692;2023-06-19T14:43:23;8.43;;;5.57;;
53751;SDS011;41095;53.090;6.692;2023-06-19T14:45:49;7.32;;;5.63;;
53751;SDS011;41095;53.090;6.692;2023-06-19T14:48:15;6.35;;;5.72;;
53751;SDS011;41095;53.090;6.692;2023-06-19T14:50:41;8.45;;;5.78;;
53751;SDS011;41095;53.090;6.692;2023-06-19T14:53:06;6.13;;;5.53;;
53751;SDS011;41095;53.090;6.692;2023-06-19T14:55:32;6.55;;;4.85;;
53751;SDS011;41095;53.090;6.692;2023-06-19T14:57:58;5.45;;;4.57;;
53751;SDS011;41095;53.090;6.692;2023-06-19T15:00:23;7.35;;;5.85;;
53751;SDS011;41095;53.090;6.692;2023-06-19T15:02:49;6.40;;;4.97;;
53751;SDS011;41095;53.090;6.692;2023-06-19T15:05:15;7.15;;;5.80;;